CST,Max TemperatureF,Mean TemperatureF,Min TemperatureF,Max Dew PointF,MeanDew PointF,Min DewpointF,Max Humidity, Mean Humidity, Min Humidity, Max Sea Level PressureIn, Mean Sea Level PressureIn, Min Sea Level PressureIn, Max VisibilityMiles, Mean VisibilityMiles, Min VisibilityMiles, Max Wind SpeedMPH, Mean Wind SpeedMPH, Max Gust SpeedMPH,PrecipitationIn, CloudCover, Events, WindDirDegrees
2013-2-1,0,-8,-16,-9,-17,-24,77,61,49,30.30,30.23,30.13,10,10,8,13,10,,0.00,3,,244
2013-2-2,12,2,-8,-1,-7,-12,83,63,46,30.22,30.13,30.01,10,10,3,9,5,,0.00,4,Snow,243
2013-2-3,10,2,-5,2,-4,-10,80,66,53,30.08,30.01,29.90,10,9,2,16,9,22,0.00,4,Snow,278
2013-2-4,12,2,-9,-1,-9,-15,84,64,35,30.11,30.01,29.83,10,10,7,9,6,,0.00,3,,235
2013-2-5,21,12,3,12,7,-1,88,77,55,30.12,29.81,29.63,10,6,0,10,6,,0.03,6,Fog-Snow,248
2013-2-6,21,11,1,19,12,-1,93,83,62,30.19,30.12,30.05,10,5,0,10,4,,0.00,8,Fog-Snow,52
2013-2-7,26,22,19,20,19,16,93,86,74,30.35,30.24,30.13,10,6,1,18,10,23,0.00,8,Snow,59
2013-2-8,21,12,1,16,10,-3,91,80,68,30.46,30.38,30.31,10,8,2,14,8,,0.00,5,Snow,16
2013-2-9,26,14,1,21,15,-3,88,80,74,30.34,30.14,30.03,10,8,5,13,5,18,0.00,7,,189
2013-2-10,32,28,23,30,25,19,100,89,74,30.05,29.64,29.35,7,4,0,20,10,25,0.00,8,Fog-Rain-Snow,67
2013-2-11,32,26,21,30,25,16,100,87,75,29.98,29.55,29.30,10,6,1,16,10,22,0.00,8,Snow,331
2013-2-12,30,22,15,21,17,10,86,77,66,30.01,29.89,29.74,10,10,6,15,8,21,0.00,6,Snow,223
2013-2-13,39,30,21,27,23,17,93,76,53,29.74,29.68,29.63,10,9,2,13,8,,0.00,6,Snow,245
2013-2-14,28,20,10,23,16,2,93,76,57,30.15,29.87,29.68,10,9,1,20,6,25,0.00,6,Snow,344
2013-2-15,16,11,6,7,2,-1,85,69,51,30.28,30.22,30.15,10,8,1,14,7,17,0.00,6,Snow,303
2013-2-16,16,4,-9,3,-3,-15,88,73,49,30.25,30.22,30.16,10,9,2,9,4,,0.00,4,Snow,286
2013-2-17,28,8,-13,12,-1,-18,91,62,41,30.22,30.03,29.79,10,10,10,14,3,24,0.00,3,,184
2013-2-18,34,28,19,25,20,13,88,76,60,29.75,29.60,29.52,10,8,2,17,6,23,0.00,7,Snow,271
2013-2-19,17,9,1,10,-1,-6,80,70,61,30.33,29.95,29.67,10,5,1,18,13,26,0.00,8,Snow,315
2013-2-20,16,8,0,6,2,-5,83,72,59,30.54,30.47,30.35,10,10,5,13,9,,0.00,5,,6
2013-2-21,21,10,-2,18,9,-8,92,81,72,30.56,30.44,30.24,10,10,5,14,6,22,0.00,8,,58
2013-2-22,28,24,21,25,22,17,93,88,80,30.23,29.93,29.82,10,3,0,14,9,,0.00,8,Fog-Snow,44
2013-2-23,32,26,21,27,25,19,100,89,75,29.95,29.84,29.78,10,6,1,8,2,,0.00,8,Snow,5
2013-2-24,35,27,18,27,24,16,100,86,61,30.12,30.04,29.91,10,10,5,6,2,,0.00,6,,212
2013-2-25,35,22,8,25,19,4,96,79,60,30.16,30.11,30.06,10,8,1,9,4,,0.00,3,,204
2013-2-26,35,20,6,28,16,3,100,87,70,30.14,30.08,29.98,10,4,0,16,3,,0.00,4,Fog,350
2013-2-27,30,29,28,27,25,22,93,80,69,30.06,29.98,29.91,10,10,10,21,16,29,0.00,8,,28
2013-2-28,28,26,23,22,19,14,84,77,65,30.33,30.22,30.05,10,8,1,21,17,28,0.00,8,Snow,37